< < Back
Terminal Aerodrome Forecast


Current Version              Previous Versions:   1  2  3  4  5  6  7  8  9  

Terminal Aerodrome Forecast

492
FTUS42 KTAE 221700
TAFTLH
TAF
KTLH 221720Z 2218/2318 36009KT P6SM SKC
     FM230000 00000KT P6SM SKC=



Latest METAR

217
SAUS80 KWBC 232200
MTRTLH
METAR KTLH 232153Z 02005KT 10SM FEW250 24/06 A2999 RMK AO2 SLP153
T02390056


USA.gov is the U.S. government's official web portal to all federal, state and local government web resources and services.